createdAt,value
2019-06-07T00:00:39.707Z,81.9
2019-06-07T00:01:31.335Z,81.9
2019-06-07T00:02:32.034Z,81.8
2019-06-07T00:03:32.742Z,81.9
2019-06-07T00:04:33.425Z,81.3
2019-06-07T00:05:34.161Z,81.6
2019-06-07T00:06:34.801Z,81.5
2019-06-07T00:07:35.488Z,81.6
2019-06-07T00:08:36.177Z,81.8
2019-06-07T00:09:36.862Z,81.5
2019-06-07T00:10:37.552Z,81.7
2019-06-07T00:11:38.242Z,81.4
2019-06-07T00:12:38.933Z,81.0
2019-06-07T00:13:39.628Z,81.3
2019-06-07T00:14:40.314Z,81.2
2019-06-07T00:15:41.007Z,81.4
2019-06-07T00:16:41.693Z,81.4
2019-06-07T00:17:42.453Z,81.8
2019-06-07T00:18:43.072Z,81.5
2019-06-07T00:19:43.762Z,81.7
2019-06-07T00:20:44.456Z,82.2
2019-06-07T00:22:46.799Z,82.3
2019-06-07T00:23:47.458Z,82.1
2019-06-07T00:24:48.148Z,81.9
2019-06-07T00:25:48.865Z,82.2
2019-06-07T00:26:58.383Z,82.7
2019-06-07T00:27:50.210Z,82.4
2019-06-07T00:28:50.975Z,82.4
2019-06-07T00:29:51.704Z,82.4
2019-06-07T00:30:52.822Z,82.7
2019-06-07T00:31:53.091Z,82.9
2019-06-07T00:32:53.773Z,83.1
2019-06-07T00:33:54.462Z,83.0
2019-06-07T00:34:55.150Z,83.1
2019-06-07T00:35:55.842Z,83.3
2019-06-07T00:36:56.530Z,83.3
2019-06-07T00:37:57.218Z,82.7
2019-06-07T00:38:57.907Z,82.8
2019-06-07T00:40:14.094Z,82.9
2019-06-07T00:41:00.148Z,83.6
2019-06-07T00:42:00.840Z,83.7
2019-06-07T00:43:01.525Z,83.7
2019-06-07T00:44:02.218Z,83.8
2019-06-07T00:45:02.910Z,84.1
2019-06-07T00:46:03.620Z,84.1
2019-06-07T00:47:04.257Z,84.0
2019-06-07T00:48:04.958Z,84.1
2019-06-07T00:49:05.643Z,84.2
2019-06-07T00:50:06.333Z,84.3
2019-06-07T00:51:07.018Z,84.5
2019-06-07T00:52:07.688Z,84.3
2019-06-07T00:53:17.190Z,84.2
2019-06-07T00:54:11.874Z,84.7
2019-06-07T00:55:14.271Z,84.4
2019-06-07T00:56:11.473Z,84.3
2019-06-07T00:57:12.546Z,84.1
2019-06-07T00:58:13.603Z,84.3
2019-06-07T00:59:15.053Z,84.4
2019-06-07T01:00:15.048Z,85.3
2019-06-07T01:01:17.614Z,85.4
2019-06-07T01:02:16.696Z,85.2
2019-06-07T01:03:17.453Z,85.1
2019-06-07T01:04:19.396Z,85.0
2019-06-07T01:05:22.389Z,84.7
2019-06-07T01:06:22.665Z,85.0
2019-06-07T01:07:20.398Z,85.3
2019-06-07T01:08:22.730Z,85.2
2019-06-07T01:09:23.532Z,85.1
2019-06-07T01:10:42.763Z,85.7
2019-06-07T01:11:24.055Z,85.5
2019-06-07T01:12:26.268Z,85.5
2019-06-07T01:13:26.214Z,85.6
2019-06-07T01:14:27.210Z,85.9
2019-06-07T01:15:28.850Z,86.0
2019-06-07T01:16:26.402Z,85.9
2019-06-07T01:17:39.695Z,85.6
2019-06-07T01:18:37.764Z,85.9
2019-06-07T01:19:27.822Z,86.3
2019-06-07T01:20:27.923Z,86.1
2019-06-07T01:21:29.950Z,85.9
2019-06-07T01:22:29.653Z,86.1
2019-06-07T01:24:31.639Z,86.4
2019-06-07T01:25:32.323Z,86.3
2019-06-07T01:26:33.010Z,86.7
2019-06-07T01:27:33.713Z,86.9
2019-06-07T01:28:34.395Z,86.7
2019-06-07T01:29:35.092Z,87.0
2019-06-07T01:30:35.771Z,87.2
2019-06-07T01:31:36.471Z,87.2
2019-06-07T01:32:37.149Z,86.8
2019-06-07T01:33:50.496Z,86.8
2019-06-07T01:34:38.524Z,86.9
2019-06-07T01:35:39.216Z,87.1
2019-06-07T01:36:39.905Z,87.9
2019-06-07T01:37:40.633Z,87.3
2019-06-07T01:38:41.285Z,87.2
2019-06-07T01:39:41.973Z,87.4
2019-06-07T01:40:42.676Z,87.4
2019-06-07T01:41:43.348Z,87.5
2019-06-07T01:42:44.060Z,88.1
2019-06-07T01:43:44.722Z,88.3
2019-06-07T01:44:45.410Z,88.4
2019-06-07T01:45:46.104Z,88.2
2019-06-07T01:46:46.794Z,88.5
2019-06-07T01:47:47.476Z,88.6
2019-06-07T01:48:49.847Z,88.4
2019-06-07T01:49:48.842Z,88.5
2019-06-07T01:50:49.540Z,89.1
2019-06-07T01:51:50.218Z,89.1
2019-06-07T01:52:50.912Z,88.9
2019-06-07T01:54:40.939Z,88.8
2019-06-07T01:54:58.344Z,89.3
2019-06-07T01:55:53.098Z,89.6
2019-06-07T01:56:53.765Z,89.6
2019-06-07T01:57:54.452Z,89.7
2019-06-07T01:58:55.140Z,89.8
2019-06-07T01:59:55.836Z,90.1
2019-06-07T02:00:56.521Z,89.5
2019-06-07T02:01:57.211Z,90.4
2019-06-07T02:02:57.902Z,89.8
2019-06-07T02:03:58.593Z,90.0
2019-06-07T02:04:59.279Z,90.4
2019-06-07T02:05:59.970Z,90.8
2019-06-07T02:07:00.739Z,90.8
2019-06-07T02:08:01.346Z,90.6
2019-06-07T02:09:02.110Z,90.9
2019-06-07T02:10:02.740Z,90.6
2019-06-07T02:11:03.443Z,91.2
2019-06-07T02:12:24.762Z,90.8
2019-06-07T02:13:04.789Z,90.8
2019-06-07T02:14:05.492Z,91.3
2019-06-07T02:15:06.179Z,91.6
2019-06-07T02:16:06.857Z,91.3
2019-06-07T02:17:07.548Z,91.1
2019-06-07T02:18:08.235Z,91.4
2019-06-07T02:19:08.928Z,91.6
2019-06-07T02:20:09.609Z,91.9
2019-06-07T02:21:10.304Z,92.1
2019-06-07T02:22:11.001Z,92.0
2019-06-07T02:23:11.684Z,92.0
2019-06-07T02:24:12.364Z,91.8
2019-06-07T02:25:39.524Z,91.8
2019-06-07T02:26:14.706Z,91.9
2019-06-07T02:27:15.396Z,91.6
2019-06-07T02:28:30.962Z,91.9
2019-06-07T02:29:17.738Z,92.3
2019-06-07T02:31:21.763Z,92.5
2019-06-07T02:32:21.771Z,92.2
2019-06-07T02:33:27.949Z,92.2
2019-06-07T02:34:24.868Z,92.5
2019-06-07T02:35:30.931Z,92.5
2019-06-07T02:36:29.194Z,92.2
2019-06-07T02:37:27.639Z,92.5
2019-06-07T02:38:29.737Z,92.6
2019-06-07T02:39:28.905Z,92.1
2019-06-07T02:40:32.046Z,92.6
2019-06-07T02:41:35.321Z,92.5
2019-06-07T02:42:30.740Z,92.6
2019-06-07T02:43:34.425Z,92.8
2019-06-07T02:44:33.081Z,92.9
2019-06-07T02:45:42.003Z,92.7
2019-06-07T02:46:40.091Z,92.7
2019-06-07T02:47:35.939Z,93.3
2019-06-07T02:48:39.547Z,93.1
2019-06-07T02:49:40.197Z,92.8
2019-06-07T02:50:38.385Z,93.1
2019-06-07T02:51:41.216Z,93.4
2019-06-07T02:52:40.384Z,92.8
2019-06-07T02:53:40.117Z,93.1
2019-06-07T02:54:40.250Z,93.0
2019-06-07T02:56:33.341Z,93.2
2019-06-07T02:56:56.163Z,93.4
2019-06-07T02:57:42.297Z,93.4
2019-06-07T02:58:42.279Z,93.6
2019-06-07T03:00:05.523Z,93.4
2019-06-07T03:01:00.099Z,93.9
2019-06-07T03:01:43.583Z,93.6
2019-06-07T03:02:44.290Z,93.6
2019-06-07T03:03:44.998Z,93.7
2019-06-07T03:04:45.666Z,93.7
2019-06-07T03:05:46.362Z,94.0
2019-06-07T03:06:47.179Z,93.7
2019-06-07T03:07:47.740Z,93.9
2019-06-07T03:08:48.422Z,93.9
2019-06-07T03:09:49.149Z,93.7
2019-06-07T03:10:49.852Z,93.9
2019-06-07T03:11:50.531Z,93.7
2019-06-07T03:12:51.224Z,93.7
2019-06-07T03:13:51.916Z,94.0
2019-06-07T03:14:52.604Z,94.2
2019-06-07T03:15:53.292Z,94.2
2019-06-07T03:16:53.983Z,94.3
2019-06-07T03:17:54.674Z,94.4
2019-06-07T03:18:55.362Z,94.1
2019-06-07T03:19:56.055Z,94.7
2019-06-07T03:21:04.961Z,94.8
2019-06-07T03:21:57.632Z,94.5
2019-06-07T03:22:58.319Z,94.8
2019-06-07T03:23:59.007Z,94.9
2019-06-07T03:24:59.699Z,95.1
2019-06-07T03:26:00.399Z,95.1
2019-06-07T03:28:02.732Z,94.8
2019-06-07T03:29:03.425Z,95.0
2019-06-07T03:30:35.411Z,94.9
2019-06-07T03:31:04.803Z,94.5
2019-06-07T03:32:05.486Z,95.5
2019-06-07T03:33:06.182Z,95.2
2019-06-07T03:34:06.871Z,95.4
2019-06-07T03:35:07.567Z,95.2
2019-06-07T03:36:23.468Z,95.3
2019-06-07T03:37:08.947Z,95.1
2019-06-07T03:38:09.637Z,95.5
2019-06-07T03:39:10.327Z,95.4
2019-06-07T03:40:11.019Z,95.2
2019-06-07T03:41:11.722Z,96.0
2019-06-07T03:42:12.429Z,95.8
2019-06-07T03:43:13.113Z,95.8
2019-06-07T03:44:13.804Z,96.4
2019-06-07T03:45:14.463Z,96.0
2019-06-07T03:46:15.157Z,96.0
2019-06-07T03:47:15.847Z,95.8
2019-06-07T03:48:16.537Z,96.0
2019-06-07T03:49:17.227Z,95.9
2019-06-07T03:50:17.919Z,95.7
2019-06-07T03:51:25.366Z,95.8
2019-06-07T03:52:20.267Z,96.3
2019-06-07T03:53:20.957Z,96.3
2019-06-07T03:54:21.651Z,96.1
2019-06-07T03:55:22.349Z,96.1
2019-06-07T03:56:23.040Z,96.2
2019-06-07T03:57:23.733Z,96.1
2019-06-07T03:58:36.625Z,96.7
2019-06-07T03:59:28.246Z,96.1
2019-06-07T04:00:29.595Z,96.8
2019-06-07T04:01:28.606Z,96.4
2019-06-07T04:02:30.214Z,96.2
2019-06-07T04:03:36.126Z,96.9
2019-06-07T04:04:29.793Z,96.8
2019-06-07T04:05:32.787Z,96.7
2019-06-07T04:06:32.583Z,96.7
2019-06-07T04:07:32.926Z,96.6
2019-06-07T04:08:34.437Z,96.6
2019-06-07T04:09:36.330Z,96.9
2019-06-07T04:10:55.623Z,96.7
2019-06-07T04:11:35.066Z,96.8
2019-06-07T04:12:41.200Z,96.9
2019-06-07T04:13:39.861Z,96.9
2019-06-07T04:14:38.511Z,96.6
2019-06-07T04:15:40.846Z,97.2
2019-06-07T04:16:43.569Z,96.8
2019-06-07T04:17:44.561Z,97.4
2019-06-07T04:18:41.863Z,96.8
2019-06-07T04:19:43.229Z,97.2
2019-06-07T04:20:41.466Z,97.3
2019-06-07T04:21:43.010Z,97.2
2019-06-07T04:22:42.774Z,97.2
2019-06-07T04:23:45.813Z,97.0
2019-06-07T04:24:44.319Z,97.0
2019-06-07T04:25:45.011Z,97.0
2019-06-07T04:26:46.845Z,97.1
2019-06-07T04:27:46.402Z,97.2
2019-06-07T04:30:06.333Z,96.9
2019-06-07T04:30:49.440Z,97.2
2019-06-07T04:31:50.142Z,97.7
2019-06-07T04:32:50.845Z,97.3
2019-06-07T04:33:51.522Z,97.3
2019-06-07T04:34:52.213Z,97.6
2019-06-07T04:35:52.914Z,97.7
2019-06-07T04:36:59.139Z,97.7
2019-06-07T04:37:54.294Z,97.5
2019-06-07T04:38:54.988Z,97.5
2019-06-07T04:39:55.677Z,97.5
2019-06-07T04:40:56.396Z,97.7
2019-06-07T04:41:57.089Z,97.6
2019-06-07T04:42:57.786Z,97.4
2019-06-07T04:43:58.477Z,97.5
2019-06-07T04:44:59.170Z,97.5
2019-06-07T04:45:59.866Z,98.0
2019-06-07T04:47:00.595Z,97.4
2019-06-07T04:48:01.596Z,97.9
2019-06-07T04:49:01.960Z,97.9
2019-06-07T04:50:02.651Z,97.6
2019-06-07T04:51:03.353Z,97.6
2019-06-07T04:52:04.034Z,98.0
2019-06-07T04:53:04.727Z,98.0
2019-06-07T04:54:05.463Z,98.1
2019-06-07T04:55:06.128Z,97.8
2019-06-07T04:56:06.823Z,98.2
2019-06-07T04:57:07.506Z,98.2
2019-06-07T04:58:08.202Z,98.5
2019-06-07T04:59:08.893Z,98.3
2019-06-07T05:00:45.251Z,98.5
2019-06-07T05:01:26.321Z,98.2
2019-06-07T05:02:11.856Z,98.2
2019-06-07T05:03:12.556Z,98.1
2019-06-07T05:04:13.253Z,98.7
2019-06-07T05:05:13.943Z,98.5
2019-06-07T05:06:14.637Z,99.3
2019-06-07T05:07:15.330Z,99.0
2019-06-07T05:08:27.385Z,98.7
2019-06-07T05:09:16.725Z,98.9
2019-06-07T05:10:17.415Z,100.0
2019-06-07T05:11:18.115Z,99.8
2019-06-07T05:12:18.809Z,99.3
2019-06-07T05:13:19.499Z,99.5
2019-06-07T05:14:20.193Z,100.0
2019-06-07T05:15:20.879Z,99.9
2019-06-07T05:16:21.598Z,99.9
2019-06-07T05:17:22.303Z,99.9
2019-06-07T05:18:22.990Z,100.0
2019-06-07T05:19:23.692Z,100.0
2019-06-07T05:20:24.380Z,100.0
2019-06-07T05:21:25.073Z,100.0
2019-06-07T05:22:25.771Z,100.0
2019-06-07T05:24:04.815Z,100.0
2019-06-07T05:24:28.126Z,100.0
2019-06-07T05:25:31.638Z,100.0
2019-06-07T05:26:30.472Z,100.0
2019-06-07T05:27:33.588Z,100.0
2019-06-07T05:28:32.441Z,100.0
2019-06-07T05:29:35.392Z,100.0
2019-06-07T05:31:04.694Z,100.0
2019-06-07T05:31:36.812Z,98.5
2019-06-07T05:32:36.796Z,97.2
2019-06-07T05:33:37.039Z,95.2
2019-06-07T05:34:36.923Z,93.6
2019-06-07T05:35:40.088Z,92.6
2019-06-07T05:36:39.923Z,91.8
2019-06-07T05:37:38.843Z,92.2
2019-06-07T05:38:41.069Z,92.6
2019-06-07T05:39:42.576Z,93.5
2019-06-07T05:40:43.921Z,93.5
2019-06-07T05:41:44.119Z,94.4
2019-06-07T05:42:46.040Z,95.2
2019-06-07T05:43:49.385Z,95.7
2019-06-07T05:44:45.486Z,96.7
2019-06-07T05:45:46.893Z,96.9
2019-06-07T05:46:47.233Z,97.5
2019-06-07T05:47:50.685Z,96.7
2019-06-07T05:48:45.713Z,96.8
2019-06-07T05:49:47.387Z,96.9
2019-06-07T05:50:56.069Z,97.1
2019-06-07T05:51:47.799Z,96.8
2019-06-07T05:52:48.497Z,96.5
2019-06-07T05:53:49.190Z,94.0
2019-06-07T05:54:49.888Z,93.2
2019-06-07T05:55:50.581Z,95.0
2019-06-07T05:56:51.278Z,95.3
2019-06-07T05:57:51.974Z,97.1
2019-06-07T05:58:52.666Z,99.6
2019-06-07T05:59:53.373Z,100.0
2019-06-07T06:00:54.065Z,100.0
2019-06-07T06:02:02.661Z,100.0
2019-06-07T06:03:04.680Z,100.0
2019-06-07T06:03:56.154Z,100.0
2019-06-07T06:04:56.846Z,100.0
2019-06-07T06:05:57.545Z,100.0
2019-06-07T06:06:58.242Z,100.0
2019-06-07T06:07:58.957Z,100.0
2019-06-07T06:09:13.451Z,100.0
2019-06-07T06:10:00.326Z,100.0
2019-06-07T06:11:01.026Z,100.0
2019-06-07T06:12:02.566Z,100.0
2019-06-07T06:13:02.420Z,100.0
2019-06-07T06:14:08.102Z,100.0
2019-06-07T06:15:03.878Z,100.0
2019-06-07T06:16:04.501Z,100.0
2019-06-07T06:17:05.178Z,100.0
2019-06-07T06:18:05.874Z,100.0
2019-06-07T06:19:06.571Z,100.0
2019-06-07T06:20:07.318Z,100.0
2019-06-07T06:21:18.643Z,100.0
2019-06-07T06:22:08.659Z,100.0
2019-06-07T06:23:09.357Z,100.0
2019-06-07T06:24:10.058Z,100.0
2019-06-07T06:25:31.814Z,99.9
2019-06-07T06:26:12.432Z,98.2
2019-06-07T06:27:55.265Z,98.6
2019-06-07T06:28:15.985Z,98.0
2019-06-07T06:29:14.519Z,99.2
2019-06-07T06:30:15.220Z,99.1
2019-06-07T06:31:15.919Z,99.2
2019-06-07T06:32:41.220Z,100.0
2019-06-07T06:33:32.925Z,100.0
2019-06-07T06:34:18.008Z,99.4
2019-06-07T06:35:18.704Z,99.8
2019-06-07T06:36:19.554Z,99.2
2019-06-07T06:37:20.135Z,98.1
2019-06-07T06:38:20.837Z,98.9
2019-06-07T06:39:21.564Z,100.0
2019-06-07T06:40:22.236Z,100.0
2019-06-07T06:41:22.941Z,100.0
2019-06-07T06:42:23.632Z,99.9
2019-06-07T06:43:24.325Z,100.0
2019-06-07T06:44:25.023Z,100.0
2019-06-07T06:45:25.750Z,100.0
2019-06-07T06:46:38.830Z,100.0
2019-06-07T06:47:27.132Z,100.0
2019-06-07T06:48:27.833Z,100.0
2019-06-07T06:49:28.531Z,100.0
2019-06-07T06:50:29.238Z,99.4
2019-06-07T06:51:29.931Z,98.8
2019-06-07T06:52:30.631Z,98.9
2019-06-07T06:53:31.321Z,98.0
2019-06-07T06:54:40.859Z,97.4
2019-06-07T06:55:33.013Z,98.0
2019-06-07T06:56:33.711Z,97.3
2019-06-07T06:57:34.412Z,98.2
2019-06-07T06:59:18.352Z,97.5
2019-06-07T06:59:39.185Z,97.3
2019-06-07T07:00:48.409Z,97.9
2019-06-07T07:01:37.195Z,98.3
2019-06-07T07:03:26.768Z,98.0
2019-06-07T07:04:41.866Z,97.8
2019-06-07T07:05:40.953Z,97.8
2019-06-07T07:06:42.698Z,97.1
2019-06-07T07:07:42.688Z,96.3
2019-06-07T07:08:43.540Z,94.3
2019-06-07T07:09:47.610Z,94.0
2019-06-07T07:10:45.959Z,93.2
2019-06-07T07:12:04.150Z,92.7
2019-06-07T07:12:47.825Z,93.4
2019-06-07T07:13:49.887Z,94.0
2019-06-07T07:14:49.599Z,94.7
2019-06-07T07:15:51.069Z,94.1
2019-06-07T07:16:52.279Z,92.9
2019-06-07T07:18:03.659Z,92.7
2019-06-07T07:18:53.119Z,92.7
2019-06-07T07:19:52.988Z,92.2
2019-06-07T07:20:56.867Z,90.6
2019-06-07T07:21:53.562Z,90.3
2019-06-07T07:22:56.834Z,88.7
2019-06-07T07:24:19.231Z,88.6
2019-06-07T07:24:55.151Z,87.9
2019-06-07T07:25:59.286Z,86.7
2019-06-07T07:26:58.469Z,87.3
2019-06-07T07:27:57.222Z,87.6
2019-06-07T07:28:58.038Z,87.6
2019-06-07T07:30:34.661Z,86.4
2019-06-07T07:30:59.316Z,85.1
2019-06-07T07:32:00.042Z,83.6
2019-06-07T07:33:00.704Z,83.7
2019-06-07T07:35:03.063Z,83.6
2019-06-07T07:36:18.920Z,84.4
2019-06-07T07:37:04.459Z,83.3
2019-06-07T07:38:05.182Z,82.9
2019-06-07T07:39:06.390Z,82.4
2019-06-07T07:40:48.080Z,82.3
2019-06-07T07:41:14.482Z,82.4
2019-06-07T07:42:20.725Z,82.4
2019-06-07T07:43:09.604Z,82.3
2019-06-07T07:44:10.311Z,82.2
2019-06-07T07:45:10.998Z,82.0
2019-06-07T07:46:28.473Z,82.9
2019-06-07T07:47:12.438Z,83.2
2019-06-07T07:48:17.756Z,83.7
2019-06-07T07:49:13.793Z,85.3
2019-06-07T07:50:14.494Z,86.3
2019-06-07T07:51:15.193Z,85.3
2019-06-07T07:52:15.909Z,82.6
2019-06-07T07:53:16.612Z,83.1
2019-06-07T07:54:17.300Z,84.2
2019-06-07T07:55:18.265Z,84.9
2019-06-07T07:56:18.894Z,83.7
2019-06-07T07:57:19.592Z,82.6
2019-06-07T07:58:20.317Z,82.0
2019-06-07T07:59:40.763Z,81.0
2019-06-07T08:00:52.562Z,79.8
2019-06-07T08:01:23.352Z,79.6
2019-06-07T08:02:24.048Z,79.9
2019-06-07T08:03:24.764Z,78.2
2019-06-07T08:05:12.043Z,77.3
2019-06-07T08:05:41.910Z,77.0
2019-06-07T08:06:26.834Z,77.2
2019-06-07T08:07:27.665Z,77.3
2019-06-07T08:08:28.259Z,77.9
2019-06-07T08:09:28.966Z,79.4
2019-06-07T08:10:29.666Z,78.9
2019-06-07T08:11:30.374Z,78.0
2019-06-07T08:12:54.772Z,77.6
2019-06-07T08:13:31.755Z,77.8
2019-06-07T08:14:32.456Z,76.6
2019-06-07T08:15:33.160Z,76.9
2019-06-07T08:16:33.854Z,75.7
2019-06-07T08:17:34.558Z,75.2
2019-06-07T08:18:35.252Z,76.9
2019-06-07T08:19:35.961Z,76.3
2019-06-07T08:20:36.663Z,75.7
2019-06-07T08:21:38.659Z,75.0
2019-06-07T08:22:38.058Z,75.3
2019-06-07T08:23:38.760Z,75.9
2019-06-07T08:24:39.457Z,76.0
2019-06-07T08:25:40.157Z,73.7
2019-06-07T08:26:41.153Z,74.0
2019-06-07T08:27:41.765Z,73.3
2019-06-07T08:28:42.497Z,73.1
2019-06-07T08:29:45.371Z,74.4
2019-06-07T08:30:50.722Z,75.2
2019-06-07T08:31:45.532Z,76.6
2019-06-07T08:32:50.934Z,76.7
2019-06-07T08:33:47.757Z,76.9
2019-06-07T08:34:51.804Z,76.2
2019-06-07T08:36:16.947Z,76.5
2019-06-07T08:36:51.659Z,76.7
2019-06-07T08:38:56.969Z,78.3
2019-06-07T08:39:56.754Z,78.2
2019-06-07T08:40:59.113Z,79.1
2019-06-07T08:42:14.368Z,79.5
2019-06-07T08:43:19.464Z,80.8
2019-06-07T08:43:59.779Z,80.9
2019-06-07T08:45:03.603Z,80.9
2019-06-07T08:46:03.826Z,81.8
2019-06-07T08:47:16.684Z,81.8
2019-06-07T08:48:05.372Z,82.4
2019-06-07T08:49:04.236Z,82.5
2019-06-07T08:50:06.303Z,82.5
2019-06-07T08:51:08.031Z,82.6
2019-06-07T08:52:10.083Z,81.3
2019-06-07T08:53:11.541Z,80.6
2019-06-07T08:54:21.533Z,79.8
2019-06-07T08:55:05.240Z,78.4
2019-06-07T08:56:09.023Z,78.0
2019-06-07T08:57:19.298Z,76.9
2019-06-07T08:58:08.799Z,76.1
2019-06-07T08:59:11.486Z,76.5
2019-06-07T09:00:42.570Z,77.2
2019-06-07T09:01:09.059Z,77.6
2019-06-07T09:02:22.943Z,77.7
2019-06-07T09:03:10.045Z,77.2
2019-06-07T09:04:11.496Z,77.3
2019-06-07T09:05:12.321Z,77.8
2019-06-07T09:07:01.334Z,76.8
2019-06-07T09:07:19.466Z,74.6
2019-06-07T09:08:29.360Z,74.0
2019-06-07T09:09:15.194Z,74.1
2019-06-07T09:10:16.027Z,73.2
2019-06-07T09:11:16.588Z,72.1
2019-06-07T09:12:17.287Z,71.5
2019-06-07T09:13:17.987Z,69.9
2019-06-07T09:14:18.687Z,70.1
2019-06-07T09:15:23.281Z,68.4
2019-06-07T09:16:20.080Z,68.8
2019-06-07T09:17:20.779Z,68.8
2019-06-07T09:18:41.310Z,67.5
2019-06-07T09:19:23.143Z,67.3
2019-06-07T09:20:36.205Z,67.5
2019-06-07T09:21:24.536Z,67.5
2019-06-07T09:22:25.246Z,67.6
2019-06-07T09:23:25.950Z,67.5
2019-06-07T09:24:26.651Z,66.6
2019-06-07T09:25:27.354Z,67.6
2019-06-07T09:26:28.053Z,66.2
2019-06-07T09:27:28.763Z,65.6
2019-06-07T09:28:29.444Z,64.3
2019-06-07T09:29:30.145Z,64.9
2019-06-07T09:30:30.856Z,64.2
2019-06-07T09:31:51.293Z,64.3
2019-06-07T09:32:32.258Z,64.7
2019-06-07T09:33:32.962Z,65.3
2019-06-07T09:34:33.664Z,65.2
2019-06-07T09:35:34.364Z,65.3
2019-06-07T09:36:35.062Z,66.1
2019-06-07T09:38:04.523Z,64.2
2019-06-07T09:38:37.426Z,65.1
2019-06-07T09:39:38.140Z,64.9
2019-06-07T09:40:38.833Z,65.2
2019-06-07T09:41:47.781Z,65.6
2019-06-07T09:42:40.200Z,65.9
2019-06-07T09:44:19.299Z,64.8
2019-06-07T09:44:42.564Z,64.9
2019-06-07T09:45:43.291Z,64.3
2019-06-07T09:46:43.973Z,64.8
2019-06-07T09:47:44.670Z,64.5
2019-06-07T09:49:12.391Z,64.4
2019-06-07T09:49:47.039Z,64.6
2019-06-07T09:50:47.740Z,64.2
2019-06-07T09:51:48.436Z,64.3
2019-06-07T09:52:58.381Z,64.0
2019-06-07T09:53:49.842Z,65.6
2019-06-07T09:55:19.583Z,64.6
2019-06-07T09:55:52.228Z,64.3
2019-06-07T09:56:52.905Z,63.4
2019-06-07T09:57:53.604Z,63.3
2019-06-07T09:58:54.608Z,63.3
2019-06-07T09:59:55.006Z,63.5
2019-06-07T10:00:59.129Z,65.4
2019-06-07T10:01:59.173Z,65.6
2019-06-07T10:03:00.036Z,64.7
2019-06-07T10:04:02.365Z,64.8
2019-06-07T10:05:01.536Z,63.4
2019-06-07T10:06:00.359Z,63.8
2019-06-07T10:07:10.558Z,62.0
2019-06-07T10:08:16.010Z,63.3
2019-06-07T10:10:08.199Z,63.9
2019-06-07T10:11:04.725Z,63.8
2019-06-07T10:12:04.726Z,63.3
2019-06-07T10:13:06.477Z,64.6
2019-06-07T10:14:06.855Z,64.6
2019-06-07T10:15:07.076Z,65.0
2019-06-07T10:16:07.219Z,65.6
2019-06-07T10:17:09.093Z,67.0
2019-06-07T10:18:09.189Z,65.2
2019-06-07T10:19:09.923Z,64.3
2019-06-07T10:20:10.008Z,64.5
2019-06-07T10:21:14.739Z,64.2
2019-06-07T10:22:11.389Z,64.3
2019-06-07T10:23:12.109Z,63.3
2019-06-07T10:24:12.799Z,62.5
2019-06-07T10:25:13.500Z,60.4
2019-06-07T10:26:14.206Z,61.7
2019-06-07T10:27:14.908Z,61.5
2019-06-07T10:28:15.607Z,60.3
2019-06-07T10:29:16.314Z,60.3
2019-06-07T10:30:17.039Z,61.1
2019-06-07T10:31:17.733Z,62.1
2019-06-07T10:32:18.429Z,62.1
2019-06-07T10:33:19.136Z,62.3
2019-06-07T10:34:19.837Z,60.9
2019-06-07T10:35:20.546Z,61.3
2019-06-07T10:36:21.258Z,62.5
2019-06-07T10:37:21.952Z,62.4
2019-06-07T10:38:22.654Z,63.2
2019-06-07T10:39:23.364Z,61.6
2019-06-07T10:40:24.060Z,63.2
2019-06-07T10:41:24.761Z,62.1
2019-06-07T10:42:25.471Z,61.1
2019-06-07T10:43:26.162Z,61.3
2019-06-07T10:44:26.874Z,60.7
2019-06-07T10:45:27.573Z,61.3
2019-06-07T10:46:28.276Z,60.6
2019-06-07T10:47:28.978Z,59.8
2019-06-07T10:48:29.676Z,61.7
2019-06-07T10:49:30.379Z,61.7
2019-06-07T10:50:31.091Z,60.5
2019-06-07T10:51:31.795Z,61.3
2019-06-07T10:52:32.502Z,60.5
2019-06-07T10:53:33.211Z,61.8
2019-06-07T10:54:33.916Z,62.6
2019-06-07T10:55:34.615Z,61.9
2019-06-07T10:56:35.313Z,61.9
2019-06-07T10:57:36.018Z,62.0
2019-06-07T10:58:36.723Z,63.2
2019-06-07T10:59:37.438Z,62.2
2019-06-07T11:00:38.135Z,63.7
2019-06-07T11:01:38.841Z,63.9
2019-06-07T11:02:39.539Z,64.5
2019-06-07T11:03:40.241Z,65.2
2019-06-07T11:04:40.946Z,67.0
2019-06-07T11:05:41.647Z,67.5
2019-06-07T11:06:42.372Z,67.1
2019-06-07T11:07:43.046Z,67.1
2019-06-07T11:08:43.756Z,66.1
2019-06-07T11:09:44.460Z,66.9
2019-06-07T11:10:45.159Z,67.4
2019-06-07T11:11:45.860Z,66.3
2019-06-07T11:12:46.562Z,65.0
2019-06-07T11:13:47.271Z,66.0
2019-06-07T11:14:47.977Z,67.7
2019-06-07T11:15:48.675Z,68.7
2019-06-07T11:16:49.390Z,67.1
2019-06-07T11:17:50.083Z,65.5
2019-06-07T11:18:50.791Z,65.2
2019-06-07T11:19:51.493Z,64.3
2019-06-07T11:20:52.192Z,65.5
2019-06-07T11:21:52.896Z,65.0
2019-06-07T11:22:53.599Z,64.8
2019-06-07T11:23:54.302Z,64.5
2019-06-07T11:24:55.005Z,64.7
2019-06-07T11:25:55.708Z,64.2
2019-06-07T11:26:56.413Z,63.6
2019-06-07T11:27:57.115Z,64.2
2019-06-07T11:28:57.821Z,65.3
2019-06-07T11:29:58.530Z,64.9
2019-06-07T11:30:59.237Z,63.5
2019-06-07T11:31:59.950Z,63.6
2019-06-07T11:33:00.647Z,63.8
2019-06-07T11:34:01.361Z,63.8
2019-06-07T11:35:02.071Z,63.0
2019-06-07T11:36:02.758Z,62.6
2019-06-07T11:37:03.460Z,61.8
2019-06-07T11:38:04.140Z,60.4
2019-06-07T11:39:04.830Z,60.7
2019-06-07T11:40:07.830Z,59.0
2019-06-07T11:41:07.307Z,59.1
2019-06-07T11:42:07.910Z,58.2
2019-06-07T11:43:08.572Z,58.2
2019-06-07T11:44:08.756Z,58.1
2019-06-07T11:45:10.563Z,57.6
2019-06-07T11:46:10.906Z,60.0
2019-06-07T11:47:10.559Z,59.6
2019-06-07T11:48:11.407Z,60.2
2019-06-07T11:49:13.130Z,60.3
2019-06-07T11:50:13.786Z,59.8
2019-06-07T11:51:14.776Z,60.2
2019-06-07T11:52:14.038Z,59.8
2019-06-07T11:53:14.709Z,60.0
2019-06-07T11:54:16.199Z,58.7
2019-06-07T11:55:16.065Z,57.4
2019-06-07T11:56:18.039Z,57.9
2019-06-07T11:57:17.476Z,57.3
2019-06-07T11:58:21.613Z,57.7
2019-06-07T11:59:18.835Z,58.2
2019-06-07T12:00:19.542Z,58.6
2019-06-07T12:01:20.248Z,58.6
2019-06-07T12:02:20.945Z,58.3
2019-06-07T12:03:21.657Z,58.6
2019-06-07T12:04:34.443Z,58.7
2019-06-07T12:05:23.939Z,58.3
2019-06-07T12:06:24.646Z,58.3
2019-06-07T12:07:25.346Z,57.6
2019-06-07T12:08:26.053Z,58.6
2019-06-07T12:09:28.124Z,57.7
2019-06-07T12:10:39.538Z,56.7
2019-06-07T12:11:28.158Z,55.8
2019-06-07T12:12:28.859Z,57.6
2019-06-07T12:13:29.575Z,56.7
2019-06-07T12:14:30.277Z,56.8
2019-06-07T12:15:30.985Z,56.1
2019-06-07T12:16:31.688Z,55.0
2019-06-07T12:17:32.394Z,54.8
2019-06-07T12:18:33.104Z,54.9
2019-06-07T12:19:33.817Z,53.8
2019-06-07T12:20:34.513Z,54.8
2019-06-07T12:21:35.223Z,54.7
2019-06-07T12:22:35.922Z,54.7
2019-06-07T12:23:36.633Z,54.7
2019-06-07T12:24:37.334Z,54.9
2019-06-07T12:25:38.035Z,55.8
2019-06-07T12:26:38.788Z,57.0
2019-06-07T12:27:39.460Z,57.0
2019-06-07T12:28:40.148Z,57.6
2019-06-07T12:29:40.847Z,56.8
2019-06-07T12:30:41.553Z,56.0
2019-06-07T12:31:42.263Z,58.1
2019-06-07T12:32:42.967Z,59.3
2019-06-07T12:33:43.671Z,61.1
2019-06-07T12:34:44.374Z,61.2
2019-06-07T12:35:45.088Z,61.3
2019-06-07T12:36:45.791Z,62.6
2019-06-07T12:37:46.489Z,63.1
2019-06-07T12:38:47.210Z,63.0
2019-06-07T12:39:47.903Z,63.5
2019-06-07T12:40:57.144Z,63.4
2019-06-07T12:41:49.313Z,61.4
2019-06-07T12:42:50.016Z,60.5
2019-06-07T12:43:50.713Z,59.7
2019-06-07T12:44:51.420Z,59.2
2019-06-07T12:45:52.127Z,58.4
2019-06-07T12:46:52.843Z,56.6
2019-06-07T12:47:53.529Z,56.8
2019-06-07T12:48:54.233Z,57.6
2019-06-07T12:49:54.937Z,57.5
2019-06-07T12:50:55.655Z,56.4
2019-06-07T12:51:56.350Z,56.3
2019-06-07T12:52:57.054Z,55.5
2019-06-07T12:53:57.761Z,56.3
2019-06-07T12:54:58.470Z,57.2
2019-06-07T12:56:00.210Z,55.4
2019-06-07T12:56:59.870Z,55.2
2019-06-07T12:58:00.574Z,55.6
2019-06-07T12:59:01.276Z,55.0
2019-06-07T13:00:02.193Z,54.9
2019-06-07T13:01:02.703Z,56.2
2019-06-07T13:02:03.405Z,54.9
2019-06-07T13:03:04.111Z,54.7
2019-06-07T13:04:04.833Z,55.6
2019-06-07T13:05:05.526Z,56.1
2019-06-07T13:06:06.250Z,56.6
2019-06-07T13:07:06.930Z,56.3
2019-06-07T13:08:07.634Z,56.5
2019-06-07T13:09:08.335Z,56.6
2019-06-07T13:10:09.051Z,56.3
2019-06-07T13:11:17.382Z,55.3
2019-06-07T13:12:10.439Z,53.6
2019-06-07T13:13:11.139Z,52.5
2019-06-07T13:14:11.849Z,52.1
2019-06-07T13:15:15.670Z,51.9
2019-06-07T13:16:13.321Z,52.7
2019-06-07T13:17:13.971Z,53.1
2019-06-07T13:18:15.645Z,54.0
2019-06-07T13:19:16.268Z,54.3
2019-06-07T13:20:16.172Z,53.0
2019-06-07T13:21:18.205Z,53.9
2019-06-07T13:22:18.344Z,54.7
2019-06-07T13:23:19.234Z,54.5
2019-06-07T13:24:19.393Z,54.8
2019-06-07T13:25:21.263Z,55.0
2019-06-07T13:26:20.609Z,54.9
2019-06-07T13:27:21.011Z,54.3
2019-06-07T13:28:22.690Z,54.5
2019-06-07T13:29:22.721Z,54.6
2019-06-07T13:30:24.058Z,54.7
2019-06-07T13:31:25.122Z,54.8
2019-06-07T13:32:24.624Z,54.4
2019-06-07T13:33:26.289Z,53.8
2019-06-07T13:34:25.915Z,54.6
2019-06-07T13:35:29.335Z,54.4